Terminal Aerodrome Forecast
Issued by NWS

Home | Current Version | Previous Version | Text Only | Print | Product List | Glossary On
Versions: 1 2 3 4 5 6 7 8 9 10 11 12 13 14 15
000
FTUS41 KAKQ 221700
TAFPHF
TAF
KPHF 221738Z 2218/2318 31013G22KT P6SM -RA BKN020 OVC040
      TEMPO 2218/2222 3SM -RA BR BKN012
     FM222300 32013G21KT P6SM OVC030
     FM230600 31012G20KT P6SM BKN040
     FM231400 31013G19KT P6SM SCT040=

USA.gov is the U.S. government's official web portal to all federal, state and local government web resources and services.